Georgetown, Missouri
Current Conditions -  °F | °C
As of 9:53 AM on Monday 24 Nov 2014 (Local Time) from KDMO Reporting Station
Overcast Overcast  
Wind Chill: 27°   Ceiling: 4100
Heat Index: 37°   Visibility: 10mi
Dew Point: 25°   Wind: 17mph
Humidity: 62%   Direction: 270°W
Pressure: 29.72"   Gusts: 24mph
Location:  38.6763°N, 93.2612°W
Report Text: KDMO 241553Z AUTO 27015G21KT 10SM SCT030 OVC041 03/M04 A2972 RMK AO2 SLP070 T00281039
Loading
Personal Weather Stations






























Interactive Weather Map New forecast layout! Learn more

10-Day Weather Forecast

Advertisements
Track Severe Weather on mobile